Time;durP1;ratioP1;P1;durP2;ratioP2;P2;SDS_P1;SDS_P2;PMS_P1;PMS_P2;Temp;Humidity;BMP_temperature;BMP_pressure;BME280_temperature;BME280_humidity;BME280_pressure;Samples;Min_cycle;Max_cycle;Signal;HPM_P1;HPM_P2
2021/03/11 00:01:37;;;;;;;41.85;23.33;;;7.40;99.90;;;;;;5075469;28;20457;-66
2021/03/11 00:04:03;;;;;;;40.65;21.88;;;7.30;99.90;;;;;;5075435;28;20036;-66
2021/03/11 00:06:28;;;;;;;39.75;21.65;;;7.30;99.90;;;;;;5073663;28;20028;-68
2021/03/11 00:08:54;;;;;;;41.45;21.90;;;7.30;99.90;;;;;;5075118;28;20078;-67
2021/03/11 00:11:19;;;;;;;39.80;20.10;;;7.30;99.90;;;;;;5074936;28;20024;-67
2021/03/11 00:13:45;;;;;;;37.58;20.50;;;7.20;99.90;;;;;;5074075;28;20457;-67
2021/03/11 00:16:10;;;;;;;41.08;21.90;;;7.30;99.90;;;;;;5074905;28;20440;-67
2021/03/11 00:18:36;;;;;;;39.78;22.52;;;7.30;99.90;;;;;;5073302;28;20021;-67
2021/03/11 00:21:02;;;;;;;37.50;19.88;;;7.40;99.90;;;;;;5075102;28;20030;-67
2021/03/11 00:23:27;;;;;;;36.85;21.40;;;7.40;99.90;;;;;;5073259;28;20485;-67
2021/03/11 00:25:53;;;;;;;41.72;23.08;;;7.50;99.90;;;;;;5075022;28;20077;-67
2021/03/11 00:28:18;;;;;;;37.33;21.77;;;7.50;99.90;;;;;;5074666;28;20104;-67
2021/03/11 00:30:45;;;;;;;38.58;20.90;;;7.50;99.90;;;;;;5074692;28;20491;-67
2021/03/11 00:33:10;;;;;;;39.42;23.15;;;7.50;99.90;;;;;;5074764;28;20449;-67
2021/03/11 00:35:36;;;;;;;36.65;20.02;;;7.40;99.90;;;;;;5074795;28;20019;-67
2021/03/11 00:38:01;;;;;;;32.50;17.10;;;7.50;99.90;;;;;;5074517;28;20025;-67
2021/03/11 00:40:27;;;;;;;42.92;20.10;;;7.50;99.90;;;;;;5074447;28;20036;-67
2021/03/11 00:42:53;;;;;;;37.70;22.10;;;7.50;99.90;;;;;;5074666;28;20465;-67
2021/03/11 00:45:19;;;;;;;35.97;21.15;;;7.50;99.90;;;;;;5073186;28;20025;-67
2021/03/11 00:47:45;;;;;;;40.10;22.58;;;7.50;99.90;;;;;;5074614;28;20036;-67
2021/03/11 00:50:15;;;;;;;37.60;21.02;;;7.50;99.90;;;;;;5074553;28;20032;-67
2021/03/11 00:52:41;;;;;;;38.58;20.42;;;7.50;99.90;;;;;;5074434;28;20115;-67
2021/03/11 00:55:09;;;;;;;36.72;20.73;;;7.50;99.90;;;;;;5074475;28;20158;-67
2021/03/11 00:57:34;;;;;;;38.97;19.92;;;7.60;99.90;;;;;;5074462;28;20178;-67
2021/03/11 01:00:00;;;;;;;36.72;19.90;;;7.60;99.90;;;;;;5073898;28;20025;-67
2021/03/11 01:02:26;;;;;;;42.20;21.65;;;7.70;99.90;;;;;;5073696;28;20358;-67
2021/03/11 01:04:51;;;;;;;38.78;21.75;;;7.70;99.90;;;;;;5074064;28;20020;-67
2021/03/11 01:07:18;;;;;;;38.17;21.42;;;7.60;99.90;;;;;;5074036;28;20453;-67
2021/03/11 01:09:44;;;;;;;36.75;20.40;;;7.60;99.90;;;;;;5073757;28;20108;-67
2021/03/11 01:12:12;;;;;;;35.30;18.33;;;7.70;99.90;;;;;;5073892;28;20111;-67
2021/03/11 01:14:38;;;;;;;35.40;19.27;;;7.80;99.90;;;;;;5074251;28;20013;-67
2021/03/11 01:17:03;;;;;;;39.58;20.05;;;7.80;99.90;;;;;;5073940;28;20116;-67
2021/03/11 01:19:29;;;;;;;38.72;19.92;;;7.80;99.90;;;;;;5072983;28;20047;-67
2021/03/11 01:21:54;;;;;;;36.45;18.35;;;7.70;99.90;;;;;;5072334;28;20029;-67
2021/03/11 01:24:20;;;;;;;39.20;20.38;;;7.70;99.90;;;;;;5074134;28;20028;-67
2021/03/11 01:26:45;;;;;;;36.25;19.77;;;7.70;99.90;;;;;;5074065;28;20029;-67
2021/03/11 01:29:11;;;;;;;34.60;17.65;;;7.80;99.90;;;;;;5073809;28;20122;-67
2021/03/11 01:31:37;;;;;;;36.00;18.75;;;7.80;99.90;;;;;;5073557;28;20123;-67
2021/03/11 01:34:02;;;;;;;34.22;18.58;;;7.80;99.90;;;;;;5074021;28;20025;-67
2021/03/11 01:36:28;;;;;;;34.58;18.65;;;7.80;99.90;;;;;;5073722;28;20373;-67
2021/03/11 01:38:53;;;;;;;39.90;19.33;;;7.80;99.90;;;;;;5072556;28;20031;-67
2021/03/11 01:41:21;;;;;;;38.33;19.33;;;7.80;99.90;;;;;;5073678;28;20020;-67
2021/03/11 01:43:46;;;;;;;36.10;18.90;;;7.80;99.90;;;;;;5072604;28;20446;-66
2021/03/11 01:46:12;;;;;;;33.85;17.38;;;7.80;99.90;;;;;;5072058;28;20023;-66
2021/03/11 01:48:38;;;;;;;37.85;20.33;;;7.70;99.90;;;;;;5073888;28;20029;-67
2021/03/11 01:51:04;;;;;;;33.30;17.95;;;7.70;99.90;;;;;;5072086;28;20024;-67
2021/03/11 01:53:30;;;;;;;32.60;17.40;;;7.70;99.90;;;;;;5073481;28;20032;-67
2021/03/11 01:55:56;;;;;;;34.45;17.90;;;7.70;99.90;;;;;;5073515;28;20475;-67
2021/03/11 01:58:22;;;;;;;34.05;18.45;;;7.70;99.90;;;;;;5073837;28;20477;-67
2021/03/11 02:00:47;;;;;;;37.88;19.25;;;7.70;99.90;;;;;;5073791;28;20029;-67
2021/03/11 02:03:13;;;;;;;36.13;18.52;;;7.80;99.90;;;;;;5073487;28;20413;-67
2021/03/11 02:05:39;;;;;;;35.58;18.40;;;7.80;99.90;;;;;;5072000;28;20024;-66
2021/03/11 02:08:05;;;;;;;30.52;17.25;;;7.70;99.90;;;;;;5073451;28;20032;-67
2021/03/11 02:10:30;;;;;;;32.95;18.23;;;7.70;99.90;;;;;;5073651;28;20025;-67
2021/03/11 02:13:36;;;;;;;33.55;17.50;;;7.70;99.90;;;;;;5073581;28;20099;-67
2021/03/11 02:16:21;;;;;;;34.25;19.45;;;7.70;99.90;;;;;;5076763;28;20522;-67
2021/03/11 02:18:52;;;;;;;33.40;17.92;;;7.70;99.90;;;;;;5077422;28;20108;-67
2021/03/11 02:21:25;;;;;;;32.45;17.48;;;7.70;99.90;;;;;;5077096;28;20013;-67
2021/03/11 02:24:30;;;;;;;29.60;15.77;;;7.70;99.90;;;;;;5076793;28;20028;-67
2021/03/11 02:27:23;;;;;;;28.48;15.95;;;7.80;99.90;;;;;;5076586;28;20118;-67
2021/03/11 02:29:52;;;;;;;29.42;16.02;;;7.70;99.90;;;;;;5076923;28;20481;-67
2021/03/11 02:32:19;;;;;;;31.83;17.17;;;7.70;99.90;;;;;;5076503;28;20071;-67
2021/03/11 02:34:50;;;;;;;29.17;16.88;;;7.80;99.90;;;;;;5077143;28;20046;-66
2021/03/11 02:37:25;;;;;;;30.17;16.60;;;7.80;99.90;;;;;;5076801;28;20032;-67
2021/03/11 02:39:55;;;;;;;31.73;17.13;;;7.70;99.90;;;;;;5077046;28;20025;-67
2021/03/11 02:42:23;;;;;;;26.48;15.07;;;7.70;99.90;;;;;;5076453;28;20031;-67
2021/03/11 02:44:50;;;;;;;27.48;15.05;;;7.70;99.90;;;;;;5076681;28;20108;-67
2021/03/11 02:47:16;;;;;;;30.27;16.13;;;7.70;99.90;;;;;;5076630;28;20029;-67
2021/03/11 02:49:44;;;;;;;27.42;15.88;;;7.80;99.90;;;;;;5075113;28;20528;-66
2021/03/11 02:52:10;;;;;;;25.90;15.52;;;7.70;99.90;;;;;;5076592;28;20016;-67
2021/03/11 02:54:36;;;;;;;28.27;15.38;;;7.80;99.90;;;;;;5076479;28;20017;-67
2021/03/11 02:57:06;;;;;;;26.85;15.10;;;7.80;99.90;;;;;;5076467;28;20108;-67
2021/03/11 02:59:32;;;;;;;25.63;13.65;;;7.80;99.90;;;;;;5077240;28;20029;-67
2021/03/11 03:02:00;;;;;;;27.65;14.52;;;7.90;99.90;;;;;;5076704;28;20127;-67
2021/03/11 03:04:29;;;;;;;28.02;14.93;;;7.90;99.90;;;;;;5076334;28;20021;-67
2021/03/11 03:06:56;;;;;;;25.58;15.30;;;7.90;99.90;;;;;;5076316;28;20074;-67
2021/03/11 03:09:21;;;;;;;25.00;14.63;;;7.90;99.90;;;;;;5076528;28;20104;-67
2021/03/11 03:11:48;;;;;;;21.80;11.20;;;8.00;99.90;;;;;;5076093;28;20545;-67
2021/03/11 03:14:16;;;;;;;25.23;14.55;;;8.00;99.90;;;;;;5076164;28;20103;-67
2021/03/11 03:16:42;;;;;;;28.55;14.25;;;8.00;99.90;;;;;;5076918;28;20089;-67
2021/03/11 03:19:11;;;;;;;23.25;13.30;;;8.00;99.90;;;;;;5076374;28;20350;-67
2021/03/11 03:21:40;;;;;;;22.88;13.90;;;8.10;99.90;;;;;;5076288;28;20024;-67
2021/03/11 03:24:06;;;;;;;28.20;14.65;;;8.10;99.90;;;;;;5076218;28;20109;-67
2021/03/11 03:26:33;;;;;;;23.73;12.45;;;8.10;99.90;;;;;;5074369;28;20055;-67
2021/03/11 03:28:58;;;;;;;20.70;12.65;;;8.10;99.90;;;;;;5076170;28;20032;-67
2021/03/11 03:31:24;;;;;;;26.75;13.45;;;8.10;99.90;;;;;;5074088;28;20379;-67
2021/03/11 03:33:49;;;;;;;22.52;13.25;;;8.10;99.90;;;;;;5076049;28;20029;-67
2021/03/11 03:36:15;;;;;;;24.55;13.25;;;8.20;99.90;;;;;;5075779;28;20051;-67
2021/03/11 03:38:40;;;;;;;19.52;10.98;;;8.20;99.90;;;;;;5074270;28;20380;-67
2021/03/11 03:41:08;;;;;;;18.25;10.75;;;8.30;99.90;;;;;;5075929;28;20027;-67
2021/03/11 03:43:38;;;;;;;19.58;10.82;;;8.40;99.90;;;;;;5075951;28;20024;-67
2021/03/11 03:46:08;;;;;;;19.90;12.10;;;8.40;99.90;;;;;;5075891;28;20024;-67
2021/03/11 03:48:56;;;;;;;18.10;10.18;;;8.40;99.90;;;;;;5075277;28;20481;-67
2021/03/11 03:51:26;;;;;;;17.75;9.73;;;8.40;99.90;;;;;;5075075;28;20060;-67
2021/03/11 03:53:55;;;;;;;17.80;10.70;;;8.40;99.90;;;;;;5075687;28;20093;-67
2021/03/11 03:56:28;;;;;;;17.60;10.57;;;8.40;99.90;;;;;;5075368;28;20445;-67
2021/03/11 03:58:57;;;;;;;18.30;10.37;;;8.40;99.90;;;;;;5075605;28;20066;-67
2021/03/11 04:01:28;;;;;;;18.63;9.80;;;8.40;99.90;;;;;;5075504;28;20589;-67
2021/03/11 04:03:57;;;;;;;17.02;9.85;;;8.40;99.90;;;;;;5075473;28;20021;-67
2021/03/11 04:06:23;;;;;;;17.10;9.45;;;8.30;99.90;;;;;;5075479;28;20028;-67
2021/03/11 04:08:49;;;;;;;23.90;10.40;;;8.30;99.90;;;;;;5075090;28;20025;-67
2021/03/11 04:11:18;;;;;;;19.05;10.30;;;8.20;99.90;;;;;;5075379;28;20480;-67
2021/03/11 04:13:44;;;;;;;18.25;10.25;;;8.20;99.90;;;;;;5074987;28;20029;-67
2021/03/11 04:16:10;;;;;;;17.35;9.95;;;8.20;99.90;;;;;;5075217;28;20074;-67
2021/03/11 04:18:36;;;;;;;17.70;9.90;;;8.20;99.90;;;;;;5075190;28;20112;-67
2021/03/11 04:21:05;;;;;;;15.95;8.90;;;8.20;99.90;;;;;;5075134;28;20028;-67
2021/03/11 04:23:31;;;;;;;15.50;9.40;;;8.20;99.90;;;;;;5075096;28;20024;-67
2021/03/11 04:25:56;;;;;;;14.65;7.93;;;8.30;99.90;;;;;;5074747;28;20037;-66
2021/03/11 04:28:22;;;;;;;11.10;6.75;;;8.20;99.90;;;;;;5073523;28;20033;-66
2021/03/11 04:30:48;;;;;;;12.45;7.03;;;8.30;99.90;;;;;;5074504;28;20040;-67
2021/03/11 04:33:14;;;;;;;15.75;8.60;;;8.30;99.90;;;;;;5074167;28;20049;-66
2021/03/11 04:35:40;;;;;;;14.57;8.25;;;8.20;99.90;;;;;;5074833;28;20020;-66
2021/03/11 04:38:05;;;;;;;14.55;8.27;;;8.20;99.90;;;;;;5074152;28;20104;-66
2021/03/11 04:40:32;;;;;;;11.70;7.05;;;8.20;99.90;;;;;;5074836;28;20031;-66
2021/03/11 04:42:58;;;;;;;13.18;7.63;;;8.20;99.90;;;;;;5074554;28;20044;-66
2021/03/11 04:45:23;;;;;;;11.57;6.43;;;8.20;99.90;;;;;;5074796;28;20118;-66
2021/03/11 04:47:49;;;;;;;12.85;7.47;;;8.20;99.90;;;;;;5074670;28;20044;-67
2021/03/11 04:50:15;;;;;;;10.63;6.45;;;8.20;99.90;;;;;;5073238;28;20036;-67
2021/03/11 04:52:41;;;;;;;10.13;5.25;;;8.20;99.90;;;;;;5075449;28;20523;-66
2021/03/11 04:55:07;;;;;;;9.88;6.18;;;8.30;99.90;;;;;;5083712;28;20021;-66
2021/03/11 04:57:33;;;;;;;10.52;6.35;;;8.30;99.90;;;;;;5085633;28;20025;-66
2021/03/11 04:59:59;;;;;;;9.02;5.97;;;8.30;99.90;;;;;;5085413;28;20036;-66
2021/03/11 05:02:32;;;;;;;12.43;5.90;;;8.30;99.90;;;;;;5084760;28;20032;-66
2021/03/11 05:05:00;;;;;;;9.27;5.53;;;8.30;99.90;;;;;;5084746;28;20476;-66
2021/03/11 05:07:26;;;;;;;7.65;5.10;;;8.30;99.90;;;;;;5083764;28;20393;-67
2021/03/11 05:09:51;;;;;;;8.02;5.25;;;8.30;99.90;;;;;;5079346;28;20084;-67
2021/03/11 05:12:17;;;;;;;11.40;5.80;;;8.30;99.90;;;;;;5074271;28;20123;-66
2021/03/11 05:14:42;;;;;;;7.80;5.30;;;8.30;99.90;;;;;;5074295;28;20024;-67
2021/03/11 05:17:08;;;;;;;7.82;4.93;;;8.30;99.90;;;;;;5074278;28;20458;-66
2021/03/11 05:19:42;;;;;;;7.90;5.07;;;8.40;99.90;;;;;;5073926;28;20029;-66
2021/03/11 05:22:07;;;;;;;7.28;4.50;;;8.40;99.90;;;;;;5073893;28;20024;-66
2021/03/11 05:24:33;;;;;;;7.80;5.28;;;8.30;99.90;;;;;;5074151;28;20040;-66
2021/03/11 05:27:00;;;;;;;7.57;5.07;;;8.30;99.90;;;;;;5074094;28;20458;-66
2021/03/11 05:29:25;;;;;;;8.35;4.93;;;8.40;99.90;;;;;;5073542;28;20035;-66
2021/03/11 05:31:51;;;;;;;10.00;5.53;;;8.30;99.90;;;;;;5073455;28;20044;-66
2021/03/11 05:34:16;;;;;;;9.85;5.80;;;8.30;99.90;;;;;;5073779;28;20021;-66
2021/03/11 05:36:42;;;;;;;9.38;6.47;;;8.20;99.90;;;;;;5074063;28;20044;-66
2021/03/11 05:39:08;;;;;;;13.35;6.28;;;8.20;99.90;;;;;;5073733;28;20027;-66
2021/03/11 05:41:38;;;;;;;12.20;6.93;;;8.20;99.90;;;;;;5073925;28;20024;-66
2021/03/11 05:44:06;;;;;;;10.63;5.78;;;8.30;99.90;;;;;;5073977;28;20021;-66
2021/03/11 05:46:33;;;;;;;11.65;7.18;;;8.20;99.90;;;;;;5073934;28;20017;-67
2021/03/11 05:48:59;;;;;;;10.50;7.13;;;8.20;99.90;;;;;;5076436;28;20020;-67
2021/03/11 05:51:27;;;;;;;19.98;7.22;;;8.20;99.90;;;;;;5077704;28;20024;-67
2021/03/11 05:53:53;;;;;;;16.00;7.25;;;8.20;99.90;;;;;;5078006;28;20017;-67
2021/03/11 05:56:18;;;;;;;10.55;6.72;;;8.20;99.90;;;;;;5077386;28;20520;-67
2021/03/11 05:58:45;;;;;;;10.90;7.15;;;8.20;99.90;;;;;;5077898;28;20013;-67
2021/03/11 06:01:11;;;;;;;11.48;7.07;;;8.10;99.90;;;;;;5077841;28;20044;-67
2021/03/11 06:03:37;;;;;;;14.38;8.20;;;8.20;99.90;;;;;;5077500;28;20025;-67
2021/03/11 06:06:03;;;;;;;14.43;7.25;;;8.20;99.90;;;;;;5077756;28;20040;-67
2021/03/11 06:08:29;;;;;;;12.30;6.65;;;8.10;99.90;;;;;;5077773;28;20028;-67
2021/03/11 06:10:56;;;;;;;11.88;7.47;;;8.30;99.90;;;;;;5077402;28;20538;-67
2021/03/11 06:13:23;;;;;;;15.77;7.53;;;8.20;99.90;;;;;;5077556;28;20059;-67
2021/03/11 06:15:57;;;;;;;11.63;6.93;;;8.20;99.90;;;;;;5077258;28;20024;-67
2021/03/11 06:18:24;;;;;;;10.80;6.70;;;8.20;99.90;;;;;;5077517;28;20150;-67
2021/03/11 06:20:51;;;;;;;8.20;5.68;;;8.20;99.90;;;;;;5077340;28;20031;-67
2021/03/11 06:23:17;;;;;;;11.23;6.68;;;8.20;99.90;;;;;;5076373;28;20029;-67
2021/03/11 06:25:42;;;;;;;12.43;6.60;;;8.20;99.90;;;;;;5077388;28;20037;-67
2021/03/11 06:28:08;;;;;;;10.65;6.55;;;8.20;99.90;;;;;;5076993;28;20020;-67
2021/03/11 06:30:39;;;;;;;11.02;6.57;;;8.20;99.90;;;;;;5077258;28;20021;-67
2021/03/11 06:33:05;;;;;;;9.75;5.80;;;8.20;99.90;;;;;;5076482;28;20045;-67
2021/03/11 06:35:37;;;;;;;12.82;6.50;;;8.20;99.90;;;;;;5076888;28;20099;-67
2021/03/11 06:38:02;;;;;;;10.63;6.22;;;8.20;99.90;;;;;;5076802;28;20021;-67
2021/03/11 06:40:30;;;;;;;8.73;5.95;;;8.30;99.90;;;;;;5077008;28;20074;-67
2021/03/11 06:43:12;;;;;;;10.02;5.97;;;8.20;99.90;;;;;;5076455;28;20035;-67
2021/03/11 06:45:39;;;;;;;8.17;5.53;;;8.30;99.90;;;;;;5075832;28;20028;-67
2021/03/11 06:48:24;;;;;;;10.65;5.75;;;8.30;99.90;;;;;;5076310;28;20120;-67
2021/03/11 06:50:51;;;;;;;9.82;5.80;;;8.30;99.90;;;;;;5076593;28;20028;-67
2021/03/11 06:53:16;;;;;;;7.88;5.43;;;8.40;99.90;;;;;;5076165;28;20028;-67
2021/03/11 06:55:45;;;;;;;8.93;5.72;;;8.40;99.90;;;;;;5076214;28;20025;-67
2021/03/11 06:58:16;;;;;;;7.65;5.00;;;8.40;99.90;;;;;;5076064;28;20381;-67
2021/03/11 07:00:42;;;;;;;7.03;4.78;;;8.40;99.90;;;;;;5075620;28;20040;-67
2021/03/11 07:03:08;;;;;;;6.05;3.65;;;8.50;99.90;;;;;;5076600;28;20023;-66
2021/03/11 07:05:39;;;;;;;8.35;4.45;;;8.60;99.90;;;;;;5076588;28;20373;-66
2021/03/11 07:08:08;;;;;;;7.85;4.22;;;8.60;99.90;;;;;;5076537;28;20049;-66
2021/03/11 07:10:36;;;;;;;6.15;4.90;;;8.60;99.90;;;;;;5075247;28;20028;-66
2021/03/11 07:13:03;;;;;;;5.85;4.10;;;8.70;99.90;;;;;;5073363;28;20025;-66
2021/03/11 07:15:31;;;;;;;7.20;4.10;;;8.70;99.90;;;;;;5055737;28;20031;-66
2021/03/11 07:17:58;;;;;;;7.38;5.05;;;8.80;99.90;;;;;;5055936;28;20021;-67
2021/03/11 07:20:26;;;;;;;7.70;4.90;;;8.80;99.90;;;;;;5061674;28;20103;-67
2021/03/11 07:23:14;;;;;;;7.03;4.90;;;8.80;99.90;;;;;;5063327;28;20031;-66
2021/03/11 07:25:45;;;;;;;9.38;5.15;;;8.80;99.90;;;;;;5055556;28;20025;-67
2021/03/11 07:28:25;;;;;;;7.75;5.15;;;8.80;99.90;;;;;;5067779;28;20520;-66
2021/03/11 07:33:31;;;;;;;7.10;4.60;;;8.90;99.90;;;;;;5111281;27;20362;-66
2021/03/11 07:35:58;;;;;;;10.13;5.13;;;9.00;99.90;;;;;;5111486;28;20024;-66
2021/03/11 07:38:26;;;;;;;8.23;5.07;;;9.10;99.90;;;;;;5109143;28;20022;-67
2021/03/11 07:40:54;;;;;;;9.15;4.97;;;9.20;99.90;;;;;;5110103;28;20437;-66
2021/03/11 07:43:21;;;;;;;8.65;5.40;;;9.30;99.90;;;;;;5098691;28;20055;-66
2021/03/11 07:45:47;;;;;;;10.85;5.47;;;9.40;99.90;;;;;;5090581;28;20127;-67
2021/03/11 07:48:14;;;;;;;6.50;4.18;;;9.50;99.90;;;;;;5101166;28;20379;-66
2021/03/11 07:50:42;;;;;;;6.10;4.28;;;9.60;99.90;;;;;;5111416;28;20031;-66
2021/03/11 07:53:08;;;;;;;5.75;4.28;;;9.60;99.90;;;;;;5110404;28;20023;-66
2021/03/11 07:55:40;;;;;;;6.35;4.65;;;9.60;99.90;;;;;;5110829;28;20028;-66
2021/03/11 07:58:10;;;;;;;9.18;4.60;;;9.70;99.90;;;;;;5108306;28;20016;-66
2021/03/11 08:00:36;;;;;;;6.13;4.55;;;9.70;99.90;;;;;;5110780;28;20023;-67
2021/03/11 08:03:07;;;;;;;6.88;4.38;;;9.70;99.90;;;;;;5103004;28;20529;-66
2021/03/11 08:05:33;;;;;;;6.60;4.35;;;9.80;99.90;;;;;;5090821;28;20040;-66
2021/03/11 08:08:20;;;;;;;7.10;4.75;;;9.80;99.90;;;;;;5096999;28;20107;-66
2021/03/11 08:11:01;;;;;;;8.07;4.68;;;9.70;99.90;;;;;;5110609;28;20093;-66
2021/03/11 08:13:31;;;;;;;7.57;4.68;;;9.60;99.90;;;;;;5100427;28;20416;-66
2021/03/11 08:15:58;;;;;;;6.28;4.22;;;9.60;99.90;;;;;;5090512;28;20077;-67
2021/03/11 08:18:41;;;;;;;5.20;4.07;;;9.60;99.90;;;;;;5098991;28;20016;-67
2021/03/11 08:21:27;;;;;;;4.88;3.60;;;9.70;99.90;;;;;;5110938;28;20047;-67
2021/03/11 08:23:55;;;;;;;6.70;3.95;;;9.80;99.90;;;;;;5097509;28;20483;-66
2021/03/11 08:26:42;;;;;;;5.03;3.45;;;10.00;99.90;;;;;;5094856;28;20104;-66
2021/03/11 08:29:21;;;;;;;4.65;3.22;;;10.30;99.90;;;;;;5110175;28;20016;-65
2021/03/11 08:31:47;;;;;;;5.45;3.45;;;10.40;99.90;;;;;;5101993;28;20040;-66
2021/03/11 08:34:35;;;;;;;7.25;3.75;;;10.40;99.90;;;;;;5089755;28;20024;-64
2021/03/11 08:37:21;;;;;;;4.90;3.55;;;11.00;99.90;;;;;;5098934;28;20034;-68
2021/03/11 08:39:48;;;;;;;6.55;3.53;;;12.20;99.90;;;;;;5108224;28;20023;-64
2021/03/11 08:42:49;;;;;;;5.30;2.92;;;12.80;99.90;;;;;;5090011;28;20461;-67
2021/03/11 08:48:15;;;;;;;5.30;4.80;;;11.90;99.90;;;;;;5110554;27;20449;-66
2021/03/11 08:50:42;;;;;;;4.72;4.15;;;11.60;99.90;;;;;;5110579;28;20024;-67
2021/03/11 08:53:08;;;;;;;5.38;3.35;;;11.50;99.90;;;;;;5111606;28;20031;-67
2021/03/11 08:55:36;;;;;;;5.13;3.65;;;11.50;99.90;;;;;;5089132;28;20032;-66
2021/03/11 08:58:04;;;;;;;8.05;3.97;;;11.60;99.90;;;;;;5091314;28;20022;-67
2021/03/11 09:00:58;;;;;;;7.90;4.47;;;11.40;99.90;;;;;;5102332;28;20476;-66
2021/03/11 09:03:44;;;;;;;7.57;4.80;;;11.20;99.90;;;;;;5110861;28;20032;-66
2021/03/11 09:06:11;;;;;;;8.52;4.57;;;11.10;99.90;;;;;;5093752;28;20055;-66
2021/03/11 09:08:47;;;;;;;6.40;4.15;;;11.00;99.90;;;;;;5101277;28;20022;-67
2021/03/11 09:11:16;;;;;;;6.68;3.70;;;10.90;99.90;;;;;;5111014;28;20069;-66
2021/03/11 09:13:43;;;;;;;6.95;3.30;;;10.80;99.90;;;;;;5099971;28;20020;-67
2021/03/11 09:16:09;;;;;;;9.77;4.88;;;10.90;99.90;;;;;;5090370;28;20017;-66
2021/03/11 09:18:36;;;;;;;6.60;3.40;;;11.00;99.90;;;;;;5099549;28;20024;-66
2021/03/11 09:21:05;;;;;;;4.85;3.83;;;11.00;99.90;;;;;;5111186;28;20506;-66
2021/03/11 09:23:34;;;;;;;6.90;3.90;;;11.10;99.90;;;;;;5102306;28;20032;-66
2021/03/11 09:26:00;;;;;;;5.47;3.28;;;11.10;99.90;;;;;;5106335;28;20043;-67
2021/03/11 09:28:25;;;;;;;6.05;3.63;;;11.20;99.90;;;;;;5096953;28;20024;-66
2021/03/11 09:30:52;;;;;;;5.63;3.58;;;11.20;99.90;;;;;;5109498;28;20020;-66
2021/03/11 09:33:18;;;;;;;6.00;3.60;;;11.30;99.90;;;;;;5105172;28;20040;-66
2021/03/11 09:35:45;;;;;;;7.05;3.83;;;11.20;99.90;;;;;;5090663;28;20346;-67
2021/03/11 09:38:12;;;;;;;6.60;3.30;;;11.20;99.90;;;;;;5090365;28;20479;-67
2021/03/11 09:40:40;;;;;;;7.80;3.92;;;11.10;99.90;;;;;;5090325;28;20039;-66
2021/03/11 09:43:21;;;;;;;11.05;4.28;;;11.00;99.90;;;;;;5090050;28;20476;-66
2021/03/11 09:45:52;;;;;;;7.55;4.05;;;11.10;99.90;;;;;;5089884;28;20081;-67
2021/03/11 09:48:24;;;;;;;6.28;3.65;;;11.10;99.90;;;;;;5090193;28;20097;-66
2021/03/11 09:50:59;;;;;;;8.40;3.80;;;11.10;99.90;;;;;;5088776;28;20046;-66
2021/03/11 09:53:35;;;;;;;7.93;3.13;;;11.10;99.90;;;;;;5089907;28;20103;-66
2021/03/11 09:56:01;;;;;;;9.10;3.58;;;11.20;99.90;;;;;;5089152;28;20500;-66
2021/03/11 09:58:27;;;;;;;9.75;3.08;;;11.20;99.90;;;;;;5102754;28;20024;-66
2021/03/11 10:00:53;;;;;;;11.32;3.97;;;11.20;99.90;;;;;;5096810;28;20070;-66
2021/03/11 10:03:25;;;;;;;10.63;3.70;;;11.10;99.90;;;;;;5075180;28;20453;-66
2021/03/11 10:05:58;;;;;;;7.47;3.00;;;11.00;99.90;;;;;;5077357;28;20017;-66
2021/03/11 10:08:28;;;;;;;11.05;3.70;;;11.10;99.90;;;;;;5076488;28;20025;-67
2021/03/11 10:11:14;;;;;;;8.98;3.25;;;11.20;99.90;;;;;;5077342;28;20039;-67
2021/03/11 10:13:48;;;;;;;10.63;3.67;;;11.40;99.90;;;;;;5096073;28;20023;-66
2021/03/11 10:16:16;;;;;;;12.25;3.30;;;11.50;99.90;;;;;;5094511;28;20024;-66
2021/03/11 10:19:03;;;;;;;8.38;2.03;;;11.50;99.90;;;;;;5096401;28;20020;-66
2021/03/11 10:21:30;;;;;;;7.82;2.72;;;11.40;99.90;;;;;;5090873;28;20024;-66
2021/03/11 10:23:56;;;;;;;10.50;2.83;;;11.40;99.90;;;;;;5074978;28;20520;-67
2021/03/11 10:26:25;;;;;;;10.68;2.50;;;11.30;99.90;;;;;;5079145;28;20153;-66
2021/03/11 10:29:01;;;;;;;9.75;2.72;;;11.50;99.90;;;;;;5088983;28;20484;-67
2021/03/11 10:31:27;;;;;;;8.82;2.45;;;12.60;99.90;;;;;;5079035;28;20024;-67
2021/03/11 10:34:02;;;;;;;8.05;2.38;;;13.40;99.90;;;;;;5079764;28;20048;-66
2021/03/11 10:36:28;;;;;;;11.85;2.65;;;13.40;99.90;;;;;;5088349;28;20113;-67
2021/03/11 10:39:12;;;;;;;11.02;2.53;;;14.10;99.90;;;;;;5094886;28;20028;-66
2021/03/11 10:41:39;;;;;;;;;;;15.00;99.90;;;;;;5076553;28;20025;-66
2021/03/11 10:44:08;;;;;;;12.38;2.70;;;15.30;99.90;;;;;;5075226;28;19983;-66
2021/03/11 10:46:34;;;;;;;16.38;2.95;;;15.60;99.90;;;;;;5084899;28;20075;-67
2021/03/11 10:49:00;;;;;;;11.35;2.65;;;15.70;99.90;;;;;;5075146;28;20438;-67
2021/03/11 10:51:27;;;;;;;15.15;3.30;;;15.20;99.90;;;;;;5091004;28;20020;-67
2021/03/11 10:53:54;;;;;;;15.05;3.15;;;15.60;99.90;;;;;;5095831;28;20104;-66
2021/03/11 10:56:20;;;;;;;12.02;2.85;;;15.10;99.90;;;;;;5081393;28;20082;-66
2021/03/11 10:58:46;;;;;;;15.48;2.88;;;15.30;99.90;;;;;;5075088;28;20024;-66
2021/03/11 11:01:16;;;;;;;13.50;2.90;;;15.40;99.90;;;;;;5087976;28;20380;-66
2021/03/11 11:03:42;;;;;;;15.90;3.28;;;14.70;99.90;;;;;;5095267;28;20028;-67
2021/03/11 11:06:08;;;;;;;16.60;3.85;;;14.30;99.90;;;;;;5087938;28;20028;-66
2021/03/11 11:08:34;;;;;;;13.02;3.60;;;14.00;99.90;;;;;;5089581;28;20032;-66
2021/03/11 11:11:02;;;;;;;14.82;3.88;;;14.10;99.90;;;;;;5083405;28;20023;-66
2021/03/11 11:13:28;;;;;;;10.75;3.28;;;13.90;99.90;;;;;;5074867;28;20021;-66
2021/03/11 11:15:54;;;;;;;12.85;4.00;;;14.00;99.90;;;;;;5083389;28;20496;-66
2021/03/11 11:18:21;;;;;;;13.07;3.70;;;13.90;99.90;;;;;;5095044;28;20099;-66
2021/03/11 11:20:47;;;;;;;14.63;3.70;;;13.90;99.90;;;;;;5087030;28;20146;-65
2021/03/11 11:23:12;;;;;;;16.30;3.38;;;14.20;99.90;;;;;;5074763;28;20023;-66
2021/03/11 11:25:38;;;;;;;16.38;3.53;;;14.00;99.90;;;;;;5078999;28;20020;-65
2021/03/11 11:28:04;;;;;;;19.63;3.38;;;14.20;99.90;;;;;;5094527;28;20036;-66
2021/03/11 11:30:29;;;;;;;19.95;2.88;;;14.00;99.90;;;;;;5091667;28;20115;-66
2021/03/11 11:32:55;;;;;;;13.55;3.95;;;13.90;99.90;;;;;;5075211;28;20024;-66
2021/03/11 11:35:21;;;;;;;10.55;3.63;;;13.90;99.90;;;;;;5072839;28;20566;-66
2021/03/11 11:37:48;;;;;;;14.05;3.45;;;13.80;99.90;;;;;;5073530;28;20032;-66
2021/03/11 11:40:15;;;;;;;19.63;3.70;;;13.80;99.90;;;;;;5074455;28;20036;-67
2021/03/11 11:42:40;;;;;;;15.90;3.65;;;13.80;99.90;;;;;;5074161;28;20500;-66
2021/03/11 11:45:08;;;;;;;15.13;3.65;;;13.80;99.90;;;;;;5074337;28;20037;-66
2021/03/11 11:47:34;;;;;;;13.15;3.03;;;13.70;99.90;;;;;;5074559;28;20052;-66
2021/03/11 11:49:59;;;;;;;9.93;2.05;;;13.60;99.90;;;;;;5074441;28;20507;-67
2021/03/11 11:52:25;;;;;;;17.00;3.05;;;13.60;99.90;;;;;;5074081;28;20031;-66
2021/03/11 11:54:51;;;;;;;10.00;2.70;;;13.70;99.90;;;;;;5074101;28;20016;-66
2021/03/11 11:57:16;;;;;;;13.85;3.15;;;13.70;99.90;;;;;;5089792;28;20035;-66
2021/03/11 11:59:42;;;;;;;9.88;1.88;;;13.80;99.90;;;;;;5089882;28;20400;-66
2021/03/11 12:02:08;;;;;;;6.80;1.90;;;13.90;99.90;;;;;;5072833;28;20111;-65
2021/03/11 12:04:34;;;;;;;15.90;3.65;;;14.10;99.90;;;;;;5073827;28;20032;-65
2021/03/11 12:07:00;;;;;;;11.57;2.85;;;14.10;99.90;;;;;;5073767;28;20372;-65
2021/03/11 12:09:26;;;;;;;14.95;2.65;;;14.10;99.90;;;;;;5073947;28;20101;-66
2021/03/11 12:11:51;;;;;;;11.98;3.40;;;14.00;99.90;;;;;;5074154;28;20458;-66
2021/03/11 12:14:17;;;;;;;14.10;3.00;;;14.20;99.90;;;;;;5074094;28;20028;-65
2021/03/11 12:16:43;;;;;;;14.88;3.00;;;14.30;99.90;;;;;;5074099;28;20477;-65
2021/03/11 12:19:09;;;;;;;18.02;3.33;;;14.40;99.90;;;;;;5074046;28;20024;-65
2021/03/11 12:21:35;;;;;;;20.27;2.92;;;14.40;99.90;;;;;;5072280;28;20028;-65
2021/03/11 12:24:02;;;;;;;26.38;4.18;;;14.20;99.90;;;;;;5072658;28;20029;-65
2021/03/11 12:26:28;;;;;;;11.98;2.60;;;14.10;99.90;;;;;;5073852;28;20091;-66
2021/03/11 12:28:54;;;;;;;19.10;3.65;;;14.20;99.90;;;;;;5073894;28;20393;-65
2021/03/11 12:31:20;;;;;;;11.00;2.40;;;14.20;99.90;;;;;;5073629;28;20021;-65
2021/03/11 12:33:47;;;;;;;10.18;3.28;;;14.00;99.90;;;;;;5073842;28;20034;-65
2021/03/11 12:36:13;;;;;;;20.85;3.70;;;14.00;99.90;;;;;;5073838;28;20059;-65
2021/03/11 12:38:40;;;;;;;11.45;2.90;;;14.20;99.90;;;;;;5072229;28;20123;-66
2021/03/11 12:41:07;;;;;;;13.10;3.13;;;14.40;99.90;;;;;;5073821;28;20526;-66
2021/03/11 12:43:33;;;;;;;14.27;3.00;;;14.60;99.90;;;;;;5073753;28;20028;-67
2021/03/11 12:45:58;;;;;;;10.70;2.97;;;14.80;99.90;;;;;;5073187;28;20023;-66
2021/03/11 12:48:25;;;;;;;9.10;2.70;;;14.90;99.90;;;;;;5072754;28;20027;-66
2021/03/11 12:50:51;;;;;;;14.00;3.17;;;15.00;99.90;;;;;;5073277;28;20519;-66
2021/03/11 12:53:18;;;;;;;17.85;3.80;;;14.90;99.90;;;;;;5073752;28;20087;-66
2021/03/11 12:55:44;;;;;;;17.80;3.17;;;14.70;99.90;;;;;;5073428;28;20028;-65